createdAt,value
2018-02-20T00:01:04.171Z,4.30
2018-02-20T00:03:31.727Z,4.30
2018-02-20T00:05:59.262Z,4.30
2018-02-20T00:08:26.795Z,4.30
2018-02-20T00:10:54.309Z,4.20
2018-02-20T00:13:21.864Z,4.10
2018-02-20T00:15:49.387Z,4.10
2018-02-20T00:18:16.925Z,4.20
2018-02-20T00:20:44.518Z,4.20
2018-02-20T00:23:12.824Z,4.20
2018-02-20T00:25:40.381Z,4.20
2018-02-20T00:28:08.711Z,4.10
2018-02-20T00:30:36.260Z,4.10
2018-02-20T00:33:03.819Z,4.00
2018-02-20T00:35:31.344Z,3.90
2018-02-20T00:37:58.901Z,3.90
2018-02-20T00:40:26.445Z,3.90
2018-02-20T00:42:54.004Z,3.90
2018-02-20T00:45:22.297Z,3.90
2018-02-20T00:47:50.623Z,3.90
2018-02-20T00:50:18.135Z,3.90
2018-02-20T00:52:45.717Z,3.90
2018-02-20T00:55:13.242Z,3.90
2018-02-20T00:57:41.557Z,3.80
2018-02-20T01:00:09.096Z,3.80
2018-02-20T01:02:36.677Z,3.80
2018-02-20T01:05:04.241Z,3.70
2018-02-20T01:07:31.800Z,3.70
2018-02-20T01:09:59.357Z,3.70
2018-02-20T01:12:26.871Z,3.80
2018-02-20T01:14:54.430Z,3.80
2018-02-20T01:17:22.771Z,3.70
2018-02-20T01:19:50.356Z,3.70
2018-02-20T01:22:17.926Z,3.60
2018-02-20T01:24:45.435Z,3.60
2018-02-20T01:27:12.948Z,3.70
2018-02-20T01:29:41.273Z,3.70
2018-02-20T01:32:08.844Z,3.70
2018-02-20T01:34:36.404Z,3.80
2018-02-20T01:37:03.920Z,3.60
2018-02-20T01:39:31.564Z,3.60
2018-02-20T01:41:59.124Z,3.60
2018-02-20T01:44:26.740Z,3.70
2018-02-20T01:46:54.328Z,3.80
2018-02-20T01:49:21.871Z,3.60
2018-02-20T01:51:49.416Z,3.50
2018-02-20T01:54:16.975Z,3.60
2018-02-20T01:56:44.536Z,3.60
2018-02-20T01:59:12.060Z,3.60
2018-02-20T02:01:40.408Z,3.60
2018-02-20T02:04:07.963Z,3.60
2018-02-20T02:06:35.493Z,3.60
2018-02-20T02:09:03.031Z,3.50
2018-02-20T02:11:30.590Z,3.50
2018-02-20T02:13:58.101Z,3.60
2018-02-20T02:16:25.645Z,3.60
2018-02-20T02:18:53.175Z,3.60
2018-02-20T02:21:20.764Z,3.60
2018-02-20T02:23:48.325Z,3.70
2018-02-20T02:26:15.840Z,3.60
2018-02-20T02:28:43.403Z,3.60
2018-02-20T02:31:11.728Z,3.60
2018-02-20T02:33:39.308Z,3.60
2018-02-20T02:36:06.829Z,3.70
2018-02-20T02:38:34.430Z,3.80
2018-02-20T02:41:01.992Z,3.60
2018-02-20T02:43:29.559Z,3.60
2018-02-20T02:45:57.874Z,3.60
2018-02-20T02:48:25.450Z,3.60
2018-02-20T02:50:53.006Z,3.50
2018-02-20T02:53:20.553Z,3.50
2018-02-20T02:55:48.105Z,3.50
2018-02-20T02:58:15.636Z,3.60
2018-02-20T03:00:43.172Z,3.60
2018-02-20T03:03:10.719Z,3.60
2018-02-20T03:05:38.270Z,3.60
2018-02-20T03:08:05.840Z,3.60
2018-02-20T03:10:33.367Z,3.60
2018-02-20T03:13:00.928Z,3.60
2018-02-20T03:15:28.460Z,3.70
2018-02-20T03:17:56.824Z,3.80
2018-02-20T03:20:24.429Z,3.80
2018-02-20T03:22:51.985Z,3.70
2018-02-20T03:25:19.505Z,3.70
2018-02-20T03:27:47.067Z,3.80
2018-02-20T03:30:14.596Z,3.90
2018-02-20T03:32:42.164Z,3.90
2018-02-20T03:35:09.682Z,3.80
2018-02-20T03:37:37.244Z,3.80
2018-02-20T03:40:04.800Z,3.80
2018-02-20T03:42:32.338Z,3.80
2018-02-20T03:45:00.677Z,3.80
2018-02-20T03:47:28.200Z,3.70
2018-02-20T03:49:55.727Z,3.70
2018-02-20T03:52:23.284Z,3.70
2018-02-20T03:54:50.850Z,3.70
2018-02-20T03:57:18.408Z,3.80
2018-02-20T03:59:45.960Z,3.70
2018-02-20T04:02:13.483Z,3.80
2018-02-20T04:04:41.019Z,3.80
2018-02-20T04:07:08.576Z,3.70
2018-02-20T04:09:36.110Z,3.70
2018-02-20T04:12:03.663Z,3.70
2018-02-20T04:14:31.229Z,3.70
2018-02-20T04:16:58.775Z,3.70
2018-02-20T04:19:26.329Z,3.70
2018-02-20T04:21:53.856Z,3.70
2018-02-20T04:24:21.423Z,3.70
2018-02-20T04:26:49.389Z,3.60
2018-02-20T04:29:16.899Z,3.70
2018-02-20T04:31:44.451Z,3.70
2018-02-20T04:34:12.004Z,3.60
2018-02-20T04:36:39.563Z,3.70
2018-02-20T04:39:07.100Z,3.60
2018-02-20T04:41:34.670Z,3.70
2018-02-20T04:44:02.280Z,3.60
2018-02-20T04:46:29.844Z,3.60
2018-02-20T04:48:57.412Z,3.60
2018-02-20T04:51:24.964Z,3.70
2018-02-20T04:53:52.520Z,3.70
2018-02-20T04:56:20.048Z,3.70
2018-02-20T04:58:47.620Z,3.70
2018-02-20T05:01:15.129Z,3.70
2018-02-20T05:03:42.692Z,3.60
2018-02-20T05:06:10.229Z,3.60
2018-02-20T05:08:37.808Z,3.70
2018-02-20T05:11:05.356Z,3.70
2018-02-20T05:13:32.924Z,3.80
2018-02-20T05:16:00.454Z,3.90
2018-02-20T05:18:27.964Z,3.90
2018-02-20T05:20:55.524Z,4.00
2018-02-20T05:23:23.046Z,3.90
2018-02-20T05:25:50.696Z,3.90
2018-02-20T05:28:18.265Z,4.00
2018-02-20T05:30:45.834Z,4.00
2018-02-20T05:33:13.440Z,4.00
2018-02-20T05:35:40.991Z,3.90
2018-02-20T05:38:08.597Z,4.00
2018-02-20T05:40:36.143Z,4.00
2018-02-20T05:43:04.469Z,3.90
2018-02-20T05:45:32.810Z,3.90
2018-02-20T05:48:01.139Z,3.90
2018-02-20T05:50:28.672Z,3.80
2018-02-20T05:52:56.289Z,3.90
2018-02-20T05:55:23.808Z,3.80
2018-02-20T05:57:51.398Z,3.90
2018-02-20T06:00:18.927Z,3.90
2018-02-20T06:02:46.468Z,4.00
2018-02-20T06:05:14.010Z,4.00
2018-02-20T06:07:41.618Z,4.10
2018-02-20T06:10:09.183Z,4.10
2018-02-20T06:12:36.700Z,4.00
2018-02-20T06:15:04.260Z,4.10
2018-02-20T06:17:31.861Z,4.10
2018-02-20T06:19:59.475Z,4.00
2018-02-20T06:22:27.074Z,4.00
2018-02-20T06:24:54.618Z,4.10
2018-02-20T06:27:22.145Z,4.20
2018-02-20T06:29:49.737Z,4.30
2018-02-20T06:32:17.375Z,4.20
2018-02-20T06:34:45.667Z,4.10
2018-02-20T06:37:13.303Z,4.10
2018-02-20T06:39:40.901Z,4.10
2018-02-20T06:42:08.494Z,4.10
2018-02-20T06:44:36.024Z,4.00
2018-02-20T06:47:03.644Z,4.10
2018-02-20T06:49:31.264Z,4.20
2018-02-20T06:51:59.710Z,4.30
2018-02-20T06:54:27.249Z,4.30
2018-02-20T06:56:55.643Z,4.30
2018-02-20T06:59:23.173Z,4.20
2018-02-20T07:01:50.800Z,4.30
2018-02-20T07:04:18.388Z,4.10
2018-02-20T07:06:45.916Z,4.10
2018-02-20T07:09:13.480Z,4.10
2018-02-20T07:11:41.067Z,4.00
2018-02-20T07:14:08.676Z,4.10
2018-02-20T07:16:36.235Z,4.10
2018-02-20T07:19:04.515Z,4.10
2018-02-20T07:21:32.067Z,4.10
2018-02-20T07:23:59.661Z,4.10
2018-02-20T07:26:27.281Z,4.10
2018-02-20T07:28:55.005Z,4.10
2018-02-20T07:31:22.782Z,4.10
2018-02-20T07:33:50.332Z,4.10
2018-02-20T07:36:17.969Z,4.10
2018-02-20T07:38:45.659Z,4.10
2018-02-20T07:41:13.305Z,4.10
2018-02-20T07:43:40.872Z,4.10
2018-02-20T07:46:08.552Z,4.10
2018-02-20T07:48:36.168Z,4.20
2018-02-20T07:51:03.822Z,4.20
2018-02-20T07:53:31.446Z,4.20
2018-02-20T07:55:59.043Z,4.20
2018-02-20T07:58:27.162Z,4.20
2018-02-20T08:00:54.751Z,4.10
2018-02-20T08:03:22.381Z,4.10
2018-02-20T08:05:49.895Z,4.10
2018-02-20T08:08:17.452Z,4.10
2018-02-20T08:10:44.993Z,4.10
2018-02-20T08:13:12.540Z,4.20
2018-02-20T08:15:40.899Z,4.10
2018-02-20T08:18:08.454Z,4.10
2018-02-20T08:20:36.007Z,4.20
2018-02-20T08:23:03.694Z,4.20
2018-02-20T08:25:31.388Z,4.20
2018-02-20T08:27:58.987Z,4.20
2018-02-20T08:30:26.556Z,4.20
2018-02-20T08:32:54.171Z,4.20
2018-02-20T08:35:21.724Z,4.30
2018-02-20T08:37:49.311Z,4.20
2018-02-20T08:40:16.896Z,4.20
2018-02-20T08:42:44.808Z,4.20
2018-02-20T08:45:12.388Z,4.20
2018-02-20T08:47:40.002Z,4.30
2018-02-20T08:50:07.559Z,4.30
2018-02-20T08:52:35.082Z,4.30
2018-02-20T08:55:02.626Z,4.40
2018-02-20T08:57:30.246Z,4.40
2018-02-20T08:59:57.840Z,4.40
2018-02-20T09:02:25.401Z,4.60
2018-02-20T09:04:53.257Z,4.50
2018-02-20T09:07:20.877Z,4.60
2018-02-20T09:09:48.465Z,4.70
2018-02-20T09:12:16.113Z,4.80
2018-02-20T09:14:43.734Z,4.90
2018-02-20T09:17:11.272Z,4.90
2018-02-20T09:19:38.871Z,4.90
2018-02-20T09:22:06.674Z,4.80
2018-02-20T09:24:34.264Z,4.90
2018-02-20T09:27:01.845Z,5.10
2018-02-20T09:29:29.471Z,5.00
2018-02-20T09:31:57.059Z,5.00
2018-02-20T09:34:24.648Z,5.00
2018-02-20T09:36:52.220Z,5.10
2018-02-20T09:39:19.787Z,5.00
2018-02-20T09:41:47.356Z,4.90
2018-02-20T09:44:14.928Z,4.90
2018-02-20T09:46:42.523Z,5.00
2018-02-20T09:49:10.104Z,4.90
2018-02-20T09:51:37.664Z,4.80
2018-02-20T09:54:05.228Z,4.70
2018-02-20T09:56:32.839Z,4.80
2018-02-20T09:59:00.372Z,4.80
2018-02-20T10:01:27.969Z,4.80
2018-02-20T10:03:56.306Z,4.80
2018-02-20T10:06:23.904Z,4.80
2018-02-20T10:08:51.664Z,5.00
2018-02-20T10:11:19.688Z,4.90
2018-02-20T10:13:47.284Z,4.90
2018-02-20T10:16:14.864Z,4.80
2018-02-20T10:18:42.466Z,4.80
2018-02-20T10:21:10.053Z,4.70
2018-02-20T10:23:37.594Z,4.70
2018-02-20T10:26:05.146Z,4.80
2018-02-20T10:28:32.750Z,4.90
2018-02-20T10:31:00.265Z,4.80
2018-02-20T10:33:27.826Z,4.90
2018-02-20T10:35:55.368Z,4.80
2018-02-20T10:38:22.950Z,4.90
2018-02-20T10:40:50.467Z,4.90
2018-02-20T10:43:17.985Z,4.90
2018-02-20T10:45:45.547Z,5.00
2018-02-20T10:48:13.108Z,5.00
2018-02-20T10:50:40.748Z,5.10
2018-02-20T10:53:08.302Z,5.10
2018-02-20T10:55:35.864Z,5.10
2018-02-20T10:58:03.482Z,5.20
2018-02-20T11:00:31.825Z,5.30
2018-02-20T11:02:59.441Z,5.30
2018-02-20T11:05:27.228Z,5.30
2018-02-20T11:07:54.843Z,5.20
2018-02-20T11:10:22.403Z,5.20
2018-02-20T11:12:49.951Z,5.30
2018-02-20T11:15:17.572Z,5.30
2018-02-20T11:17:45.116Z,5.40
2018-02-20T11:20:12.743Z,5.30
2018-02-20T11:22:40.457Z,5.40
2018-02-20T11:25:08.007Z,5.40
2018-02-20T11:27:35.559Z,5.30
2018-02-20T11:30:03.172Z,5.30
2018-02-20T11:32:30.816Z,5.30
2018-02-20T11:34:58.380Z,5.30
2018-02-20T11:37:26.923Z,5.30
2018-02-20T11:39:54.548Z,5.30
2018-02-20T11:42:22.112Z,5.20
2018-02-20T11:44:49.675Z,5.20
2018-02-20T11:47:17.453Z,5.20
2018-02-20T11:49:45.833Z,5.20
2018-02-20T11:52:14.132Z,5.20
2018-02-20T11:54:41.757Z,5.10
2018-02-20T11:57:09.576Z,5.10
2018-02-20T11:59:37.259Z,5.10
2018-02-20T12:02:04.923Z,5.10
2018-02-20T12:04:32.514Z,5.10
2018-02-20T12:07:00.085Z,5.30
2018-02-20T12:09:27.799Z,5.30
2018-02-20T12:11:55.332Z,5.30
2018-02-20T12:14:23.049Z,5.30
2018-02-20T12:16:50.644Z,5.20
2018-02-20T12:19:18.931Z,5.30
2018-02-20T12:21:46.540Z,5.30
2018-02-20T12:24:14.147Z,5.30
2018-02-20T12:26:42.467Z,5.40
2018-02-20T12:29:10.186Z,5.30
2018-02-20T12:31:37.718Z,5.30
2018-02-20T12:34:05.373Z,5.30
2018-02-20T12:36:33.105Z,5.30
2018-02-20T12:39:00.665Z,5.30
2018-02-20T12:41:28.282Z,5.30
2018-02-20T12:43:56.807Z,5.40
2018-02-20T12:46:24.435Z,5.40
2018-02-20T12:48:52.780Z,5.50
2018-02-20T12:51:20.335Z,5.50
2018-02-20T12:53:47.884Z,5.60
2018-02-20T12:56:15.448Z,5.70
2018-02-20T12:58:43.023Z,5.70
2018-02-20T13:01:10.564Z,5.80
2018-02-20T13:03:38.168Z,5.80
2018-02-20T13:06:05.816Z,5.70
2018-02-20T13:08:33.343Z,5.70
2018-02-20T13:11:00.894Z,5.80
2018-02-20T13:13:28.515Z,5.70
2018-02-20T13:15:56.114Z,5.70
2018-02-20T13:18:23.684Z,5.60
2018-02-20T13:20:51.302Z,5.60
2018-02-20T13:23:18.896Z,5.40
2018-02-20T13:25:46.492Z,5.40
2018-02-20T13:28:14.057Z,5.50
2018-02-20T13:30:41.624Z,5.60
2018-02-20T13:33:09.191Z,5.60
2018-02-20T13:35:37.568Z,5.70
2018-02-20T13:38:05.125Z,5.70
2018-02-20T13:40:32.781Z,5.60
2018-02-20T13:43:00.526Z,5.50
2018-02-20T13:45:28.070Z,5.40
2018-02-20T13:47:56.211Z,5.50
2018-02-20T13:50:24.541Z,5.30
2018-02-20T13:52:52.184Z,5.30
2018-02-20T13:55:20.598Z,5.50
2018-02-20T13:57:48.174Z,5.40
2018-02-20T14:00:15.796Z,5.50
2018-02-20T14:02:43.356Z,5.60
2018-02-20T14:05:10.904Z,5.60
2018-02-20T14:07:38.476Z,5.60
2018-02-20T14:10:06.086Z,5.60
2018-02-20T14:12:33.640Z,5.60
2018-02-20T14:15:01.259Z,5.60
2018-02-20T14:17:28.811Z,5.60
2018-02-20T14:19:56.364Z,5.60
2018-02-20T14:22:24.784Z,5.50
2018-02-20T14:24:52.381Z,5.50
2018-02-20T14:27:20.029Z,5.60
2018-02-20T14:29:48.409Z,5.40
2018-02-20T14:32:16.116Z,5.40
2018-02-20T14:34:43.850Z,5.50
2018-02-20T14:37:11.446Z,5.50
2018-02-20T14:39:39.028Z,5.50
2018-02-20T14:42:06.612Z,5.40
2018-02-20T14:44:34.940Z,5.40
2018-02-20T14:47:02.512Z,5.40
2018-02-20T14:49:30.157Z,5.50
2018-02-20T14:51:57.818Z,5.30
2018-02-20T14:54:25.402Z,5.20
2018-02-20T14:56:53.001Z,5.20
2018-02-20T14:59:21.542Z,5.10
2018-02-20T15:01:49.304Z,5.10
2018-02-20T15:04:16.828Z,5.00
2018-02-20T15:06:44.629Z,5.10
2018-02-20T15:09:12.180Z,5.20
2018-02-20T15:11:39.734Z,5.20
2018-02-20T15:14:07.334Z,5.10
2018-02-20T15:16:34.907Z,5.10
2018-02-20T15:19:02.563Z,5.10
2018-02-20T15:21:30.278Z,5.10
2018-02-20T15:23:57.852Z,5.20
2018-02-20T15:26:25.382Z,5.30
2018-02-20T15:28:52.943Z,5.20
2018-02-20T15:31:21.256Z,5.00
2018-02-20T15:33:48.824Z,5.00
2018-02-20T15:36:16.438Z,5.00
2018-02-20T15:38:44.087Z,4.90
2018-02-20T15:41:12.331Z,4.90
2018-02-20T15:43:39.908Z,4.80
2018-02-20T15:46:07.443Z,4.70
2018-02-20T15:48:35.035Z,4.80
2018-02-20T15:51:03.345Z,4.80
2018-02-20T15:53:30.996Z,4.80
2018-02-20T15:55:58.583Z,4.80
2018-02-20T15:58:26.154Z,4.80
2018-02-20T16:00:54.093Z,4.90
2018-02-20T16:03:21.884Z,4.90
2018-02-20T16:05:49.465Z,4.90
2018-02-20T16:08:16.989Z,4.90
2018-02-20T16:10:44.640Z,4.90
2018-02-20T16:13:12.264Z,4.90
2018-02-20T16:15:39.801Z,4.80
2018-02-20T16:18:07.384Z,4.80
2018-02-20T16:20:35.081Z,4.90
2018-02-20T16:23:02.730Z,4.90
2018-02-20T16:25:30.298Z,4.90
2018-02-20T16:27:57.866Z,4.80
2018-02-20T16:30:25.420Z,4.80
2018-02-20T16:32:53.158Z,4.90
2018-02-20T16:35:20.860Z,4.90
2018-02-20T16:37:48.463Z,4.90
2018-02-20T16:40:15.994Z,4.80
2018-02-20T16:42:43.609Z,4.80
2018-02-20T16:45:11.152Z,4.80
2018-02-20T16:47:38.712Z,4.90
2018-02-20T16:50:06.268Z,4.80
2018-02-20T16:52:33.897Z,4.80
2018-02-20T16:55:01.457Z,4.80
2018-02-20T16:57:29.021Z,4.70
2018-02-20T16:59:56.581Z,4.70
2018-02-20T17:02:24.164Z,4.60
2018-02-20T17:04:51.703Z,4.60
2018-02-20T17:07:19.296Z,4.60
2018-02-20T17:09:46.893Z,4.70
2018-02-20T17:12:14.456Z,4.70
2018-02-20T17:14:41.980Z,4.60
2018-02-20T17:17:09.558Z,4.60
2018-02-20T17:19:37.136Z,4.60
2018-02-20T17:22:05.536Z,4.50
2018-02-20T17:24:33.085Z,4.50
2018-02-20T17:27:00.633Z,4.60
2018-02-20T17:29:28.205Z,4.40
2018-02-20T17:31:55.752Z,4.40
2018-02-20T17:34:23.365Z,4.50
2018-02-20T17:36:50.887Z,4.60
2018-02-20T17:39:18.581Z,4.60
2018-02-20T17:41:46.121Z,4.50
2018-02-20T17:44:13.679Z,4.40
2018-02-20T17:46:41.272Z,4.50
2018-02-20T17:49:08.820Z,4.60
2018-02-20T17:51:36.392Z,4.70
2018-02-20T17:54:03.929Z,4.70
2018-02-20T17:56:31.497Z,4.60
2018-02-20T17:58:59.051Z,4.60
2018-02-20T18:01:26.619Z,4.50
2018-02-20T18:03:54.269Z,4.50
2018-02-20T18:06:21.844Z,4.60
2018-02-20T18:08:49.383Z,4.60
2018-02-20T18:11:16.932Z,4.60
2018-02-20T18:13:44.465Z,4.70
2018-02-20T18:16:12.821Z,4.80
2018-02-20T18:18:40.369Z,4.70
2018-02-20T18:21:07.929Z,4.70
2018-02-20T18:23:35.553Z,4.70
2018-02-20T18:26:03.153Z,4.80
2018-02-20T18:28:30.677Z,4.60
2018-02-20T18:30:58.310Z,4.60
2018-02-20T18:33:26.602Z,4.60
2018-02-20T18:35:54.168Z,4.60
2018-02-20T18:38:22.490Z,4.50
2018-02-20T18:40:50.053Z,4.60
2018-02-20T18:43:17.601Z,4.60
2018-02-20T18:45:45.130Z,4.60
2018-02-20T18:48:12.680Z,4.50
2018-02-20T18:50:40.223Z,4.40
2018-02-20T18:53:07.791Z,4.40
2018-02-20T18:55:35.361Z,4.40
2018-02-20T18:58:02.927Z,4.40
2018-02-20T19:00:30.457Z,4.40
2018-02-20T19:02:58.013Z,4.50
2018-02-20T19:05:25.571Z,4.60
2018-02-20T19:07:53.099Z,4.60
2018-02-20T19:10:20.724Z,4.60
2018-02-20T19:12:48.256Z,4.60
2018-02-20T19:15:15.833Z,4.70
2018-02-20T19:17:43.444Z,4.60
2018-02-20T19:20:11.004Z,4.60
2018-02-20T19:22:38.564Z,4.50
2018-02-20T19:25:06.136Z,4.50
2018-02-20T19:27:33.689Z,4.50
2018-02-20T19:30:01.308Z,4.50
2018-02-20T19:32:28.897Z,4.50
2018-02-20T19:34:56.445Z,4.40
2018-02-20T19:37:24.029Z,4.40
2018-02-20T19:39:51.584Z,4.50
2018-02-20T19:42:19.180Z,4.50
2018-02-20T19:44:47.523Z,4.30
2018-02-20T19:47:15.043Z,4.20
2018-02-20T19:49:42.571Z,4.30
2018-02-20T19:52:10.140Z,4.40
2018-02-20T19:54:37.719Z,4.50
2018-02-20T19:57:06.081Z,4.30
2018-02-20T19:59:34.473Z,4.30
2018-02-20T20:02:02.756Z,4.20
2018-02-20T20:04:30.377Z,4.20
2018-02-20T20:06:57.906Z,4.10
2018-02-20T20:09:25.538Z,4.20
2018-02-20T20:11:53.857Z,4.10
2018-02-20T20:14:21.419Z,4.10
2018-02-20T20:16:49.811Z,4.20
2018-02-20T20:19:17.398Z,4.20
2018-02-20T20:21:44.979Z,4.10
2018-02-20T20:24:12.567Z,4.00
2018-02-20T20:26:40.132Z,4.00
2018-02-20T20:29:07.659Z,4.00
2018-02-20T20:31:35.290Z,4.00
2018-02-20T20:34:02.863Z,4.10
2018-02-20T20:36:31.167Z,4.10
2018-02-20T20:38:58.750Z,4.10
2018-02-20T20:41:26.309Z,4.10
2018-02-20T20:43:53.874Z,4.10
2018-02-20T20:46:22.194Z,4.20
2018-02-20T20:48:49.807Z,4.20
2018-02-20T20:51:17.344Z,4.10
2018-02-20T20:53:44.909Z,4.20
2018-02-20T20:56:12.482Z,4.20
2018-02-20T20:58:40.070Z,4.20
2018-02-20T21:01:07.643Z,4.20
2018-02-20T21:03:36.099Z,4.20
2018-02-20T21:06:03.649Z,4.30
2018-02-20T21:08:31.189Z,4.10
2018-02-20T21:10:58.772Z,4.10
2018-02-20T21:13:26.305Z,4.20
2018-02-20T21:15:53.844Z,4.10
2018-02-20T21:18:21.427Z,4.00
2018-02-20T21:20:48.954Z,3.90
2018-02-20T21:23:16.520Z,3.90
2018-02-20T21:25:44.096Z,3.80
2018-02-20T21:28:12.408Z,4.00
2018-02-20T21:30:40.787Z,3.90
2018-02-20T21:33:09.112Z,3.90
2018-02-20T21:35:36.676Z,3.90
2018-02-20T21:38:04.984Z,4.00
2018-02-20T21:40:32.564Z,4.00
2018-02-20T21:43:00.165Z,4.00
2018-02-20T21:45:27.684Z,4.00
2018-02-20T21:47:55.244Z,4.00
2018-02-20T21:50:22.764Z,3.90
2018-02-20T21:52:50.357Z,4.00
2018-02-20T21:55:18.642Z,4.00
2018-02-20T21:57:46.152Z,4.00
2018-02-20T22:00:13.721Z,3.80
2018-02-20T22:02:42.021Z,3.70
2018-02-20T22:05:09.587Z,3.70
2018-02-20T22:07:37.134Z,3.70
2018-02-20T22:10:04.714Z,3.80
2018-02-20T22:12:32.281Z,3.80
2018-02-20T22:14:59.882Z,3.80
2018-02-20T22:17:27.505Z,3.80
2018-02-20T22:19:55.145Z,3.80
2018-02-20T22:22:22.702Z,3.80
2018-02-20T22:24:50.233Z,3.70
2018-02-20T22:27:17.806Z,3.80
2018-02-20T22:29:45.348Z,3.80
2018-02-20T22:32:12.907Z,3.80
2018-02-20T22:34:40.439Z,3.80
2018-02-20T22:37:07.983Z,3.80
2018-02-20T22:39:36.327Z,3.70
2018-02-20T22:42:03.869Z,3.70
2018-02-20T22:44:31.429Z,3.60
2018-02-20T22:46:58.973Z,3.60
2018-02-20T22:49:26.584Z,3.60
2018-02-20T22:51:54.292Z,3.60
2018-02-20T22:54:21.835Z,3.70
2018-02-20T22:56:49.384Z,3.80
2018-02-20T22:59:16.945Z,3.90
2018-02-20T23:01:44.452Z,3.90
2018-02-20T23:04:12.060Z,4.00
2018-02-20T23:06:39.621Z,4.10
2018-02-20T23:09:07.131Z,4.10
2018-02-20T23:11:53.291Z,4.00
2018-02-20T23:14:20.816Z,3.90
2018-02-20T23:16:49.140Z,3.80
2018-02-20T23:19:16.693Z,3.80
2018-02-20T23:21:44.256Z,3.90
2018-02-20T23:24:11.774Z,3.90
2018-02-20T23:26:39.332Z,3.90
2018-02-20T23:29:06.891Z,3.80
2018-02-20T23:31:34.452Z,3.80
2018-02-20T23:34:02.056Z,3.80
2018-02-20T23:36:29.567Z,3.80
2018-02-20T23:38:57.175Z,3.80
2018-02-20T23:41:24.696Z,3.70
2018-02-20T23:43:53.063Z,3.80
2018-02-20T23:46:21.343Z,3.80
2018-02-20T23:48:49.704Z,3.90
2018-02-20T23:51:22.795Z,3.90
2018-02-20T23:53:52.091Z,3.90
2018-02-20T23:56:19.642Z,3.80
2018-02-20T23:58:47.163Z,3.80
